sensor_id;sensor_type;location;lat;lon;timestamp;pressure;altitude;pressure_sealevel;temperature;humidity
56198;BME280;42700;42.524;12.052;2023-04-26T00:01:19;87382.34;;;12.31;100.00
56198;BME280;42700;42.524;12.052;2023-04-26T00:03:46;87491.53;;;12.33;100.00
56198;BME280;42700;42.524;12.052;2023-04-26T00:06:11;87640.13;;;12.37;100.00
56198;BME280;42700;42.524;12.052;2023-04-26T00:08:39;87374.03;;;12.29;100.00
56198;BME280;42700;42.524;12.052;2023-04-26T00:11:04;86978.56;;;12.16;100.00
56198;BME280;42700;42.524;12.052;2023-04-26T00:13:30;86945.38;;;12.12;100.00
56198;BME280;42700;42.524;12.052;2023-04-26T00:15:55;87313.25;;;12.22;100.00
56198;BME280;42700;42.524;12.052;2023-04-26T00:18:21;87266.63;;;12.21;100.00
56198;BME280;42700;42.524;12.052;2023-04-26T00:20:46;87199.22;;;12.18;100.00
56198;BME280;42700;42.524;12.052;2023-04-26T00:23:12;87238.00;;;12.16;100.00
56198;BME280;42700;42.524;12.052;2023-04-26T00:25:37;87326.66;;;12.18;100.00
56198;BME280;42700;42.524;12.052;2023-04-26T00:28:03;87213.09;;;12.13;100.00
56198;BME280;42700;42.524;12.052;2023-04-26T00:30:28;87216.19;;;12.12;100.00
56198;BME280;42700;42.524;12.052;2023-04-26T00:32:54;86280.34;;;11.81;100.00
56198;BME280;42700;42.524;12.052;2023-04-26T00:35:19;86569.16;;;11.88;100.00
56198;BME280;42700;42.524;12.052;2023-04-26T00:37:45;86106.59;;;11.71;100.00
56198;BME280;42700;42.524;12.052;2023-04-26T00:40:11;86046.25;;;11.66;100.00
56198;BME280;42700;42.524;12.052;2023-04-26T00:42:37;86400.56;;;11.72;100.00
56198;BME280;42700;42.524;12.052;2023-04-26T00:45:02;86663.28;;;11.78;100.00
56198;BME280;42700;42.524;12.052;2023-04-26T00:47:28;86841.38;;;11.80;100.00
56198;BME280;42700;42.524;12.052;2023-04-26T00:49:54;86842.53;;;11.79;100.00
56198;BME280;42700;42.524;12.052;2023-04-26T00:52:19;86623.56;;;11.69;100.00
56198;BME280;42700;42.524;12.052;2023-04-26T00:54:47;87362.63;;;11.88;100.00
56198;BME280;42700;42.524;12.052;2023-04-26T00:57:13;87748.34;;;11.98;100.00
56198;BME280;42700;42.524;12.052;2023-04-26T00:59:38;87667.38;;;11.93;100.00
56198;BME280;42700;42.524;12.052;2023-04-26T01:02:04;87067.47;;;11.75;100.00
56198;BME280;42700;42.524;12.052;2023-04-26T01:04:29;87292.44;;;11.80;100.00
56198;BME280;42700;42.524;12.052;2023-04-26T01:06:55;86905.66;;;11.66;100.00
56198;BME280;42700;42.524;12.052;2023-04-26T01:09:20;86995.13;;;11.65;100.00
56198;BME280;42700;42.524;12.052;2023-04-26T01:11:46;87119.66;;;11.69;100.00
56198;BME280;42700;42.524;12.052;2023-04-26T01:14:13;87048.19;;;11.65;100.00
56198;BME280;42700;42.524;12.052;2023-04-26T01:16:38;87288.25;;;11.70;100.00
56198;BME280;42700;42.524;12.052;2023-04-26T01:19:10;87185.38;;;11.64;100.00
56198;BME280;42700;42.524;12.052;2023-04-26T01:21:37;87640.59;;;11.75;100.00
56198;BME280;42700;42.524;12.052;2023-04-26T01:24:03;87340.72;;;11.66;100.00
56198;BME280;42700;42.524;12.052;2023-04-26T01:26:29;87304.44;;;11.62;100.00
56198;BME280;42700;42.524;12.052;2023-04-26T01:28:55;87671.09;;;11.70;100.00
56198;BME280;42700;42.524;12.052;2023-04-26T01:31:20;87513.63;;;11.64;100.00
56198;BME280;42700;42.524;12.052;2023-04-26T01:33:46;87611.34;;;11.66;100.00
56198;BME280;42700;42.524;12.052;2023-04-26T01:36:11;87481.91;;;11.60;100.00
56198;BME280;42700;42.524;12.052;2023-04-26T01:38:37;87666.75;;;11.63;100.00
56198;BME280;42700;42.524;12.052;2023-04-26T01:41:02;87394.91;;;11.55;100.00
56198;BME280;42700;42.524;12.052;2023-04-26T01:43:28;87505.44;;;11.58;100.00
56198;BME280;42700;42.524;12.052;2023-04-26T01:45:53;87466.53;;;11.55;100.00
56198;BME280;42700;42.524;12.052;2023-04-26T01:48:18;87226.59;;;11.47;100.00
56198;BME280;42700;42.524;12.052;2023-04-26T01:50:44;87075.69;;;11.40;100.00
56198;BME280;42700;42.524;12.052;2023-04-26T01:53:09;87035.63;;;11.38;100.00
56198;BME280;42700;42.524;12.052;2023-04-26T01:55:35;86974.34;;;11.36;100.00
56198;BME280;42700;42.524;12.052;2023-04-26T01:58:00;86915.41;;;11.32;100.00
56198;BME280;42700;42.524;12.052;2023-04-26T02:00:27;86492.63;;;11.18;100.00
56198;BME280;42700;42.524;12.052;2023-04-26T02:02:53;86461.00;;;11.14;100.00
56198;BME280;42700;42.524;12.052;2023-04-26T02:05:19;86756.81;;;11.21;100.00
56198;BME280;42700;42.524;12.052;2023-04-26T02:07:44;86757.25;;;11.19;100.00
56198;BME280;42700;42.524;12.052;2023-04-26T02:10:10;86471.03;;;11.10;100.00
56198;BME280;42700;42.524;12.052;2023-04-26T02:12:35;86206.59;;;10.99;100.00
56198;BME280;42700;42.524;12.052;2023-04-26T02:15:01;86024.16;;;10.92;100.00
56198;BME280;42700;42.524;12.052;2023-04-26T02:17:26;85903.72;;;10.87;100.00
56198;BME280;42700;42.524;12.052;2023-04-26T02:19:53;86037.59;;;10.88;100.00
56198;BME280;42700;42.524;12.052;2023-04-26T02:22:19;85987.00;;;10.86;100.00
56198;BME280;42700;42.524;12.052;2023-04-26T02:24:48;86099.00;;;10.87;100.00
56198;BME280;42700;42.524;12.052;2023-04-26T02:27:14;85567.69;;;10.69;100.00
56198;BME280;42700;42.524;12.052;2023-04-26T02:29:39;85602.09;;;10.69;100.00
56198;BME280;42700;42.524;12.052;2023-04-26T02:32:05;85313.72;;;10.60;100.00
56198;BME280;42700;42.524;12.052;2023-04-26T02:34:31;85976.28;;;10.75;100.00
56198;BME280;42700;42.524;12.052;2023-04-26T02:36:57;85727.50;;;10.66;100.00
56198;BME280;42700;42.524;12.052;2023-04-26T02:39:22;85896.50;;;10.67;100.00
56198;BME280;42700;42.524;12.052;2023-04-26T02:41:48;85790.78;;;10.64;100.00
56198;BME280;42700;42.524;12.052;2023-04-26T02:44:14;86501.81;;;10.83;100.00
56198;BME280;42700;42.524;12.052;2023-04-26T02:46:39;86656.06;;;10.87;100.00
56198;BME280;42700;42.524;12.052;2023-04-26T02:49:05;86266.63;;;10.73;100.00
56198;BME280;42700;42.524;12.052;2023-04-26T02:51:31;86440.03;;;10.77;100.00
56198;BME280;42700;42.524;12.052;2023-04-26T02:53:57;86588.22;;;10.81;100.00
56198;BME280;42700;42.524;12.052;2023-04-26T02:56:23;86750.13;;;10.83;100.00
56198;BME280;42700;42.524;12.052;2023-04-26T02:58:48;86423.59;;;10.73;100.00
56198;BME280;42700;42.524;12.052;2023-04-26T03:01:14;85997.97;;;10.59;100.00
56198;BME280;42700;42.524;12.052;2023-04-26T03:03:40;86396.53;;;10.69;100.00
56198;BME280;42700;42.524;12.052;2023-04-26T03:06:06;86591.94;;;10.74;100.00
56198;BME280;42700;42.524;12.052;2023-04-26T03:08:33;86470.69;;;10.69;100.00
56198;BME280;42700;42.524;12.052;2023-04-26T03:11:00;86094.47;;;10.58;100.00
56198;BME280;42700;42.524;12.052;2023-04-26T03:13:26;86392.16;;;10.66;100.00
56198;BME280;42700;42.524;12.052;2023-04-26T03:15:51;86142.16;;;10.58;100.00
56198;BME280;42700;42.524;12.052;2023-04-26T03:18:18;86361.28;;;10.63;100.00
56198;BME280;42700;42.524;12.052;2023-04-26T03:20:44;86180.66;;;10.59;100.00
56198;BME280;42700;42.524;12.052;2023-04-26T03:23:10;86039.81;;;10.55;100.00
56198;BME280;42700;42.524;12.052;2023-04-26T03:25:35;86010.41;;;10.52;100.00
56198;BME280;42700;42.524;12.052;2023-04-26T03:28:01;86390.41;;;10.63;100.00
56198;BME280;42700;42.524;12.052;2023-04-26T03:30:27;86334.81;;;10.63;100.00
56198;BME280;42700;42.524;12.052;2023-04-26T03:32:52;86389.22;;;10.64;100.00
56198;BME280;42700;42.524;12.052;2023-04-26T03:35:18;86231.22;;;10.61;100.00
56198;BME280;42700;42.524;12.052;2023-04-26T03:37:44;86398.63;;;10.65;100.00
56198;BME280;42700;42.524;12.052;2023-04-26T03:40:09;86001.25;;;10.53;100.00
56198;BME280;42700;42.524;12.052;2023-04-26T03:42:35;86043.16;;;10.55;100.00
56198;BME280;42700;42.524;12.052;2023-04-26T03:45:01;86341.56;;;10.64;100.00
56198;BME280;42700;42.524;12.052;2023-04-26T03:47:28;86184.78;;;10.60;100.00
56198;BME280;42700;42.524;12.052;2023-04-26T03:49:54;85892.00;;;10.53;100.00
56198;BME280;42700;42.524;12.052;2023-04-26T03:52:19;86336.56;;;10.66;100.00
56198;BME280;42700;42.524;12.052;2023-04-26T03:54:45;85863.34;;;10.51;100.00
56198;BME280;42700;42.524;12.052;2023-04-26T03:57:10;86094.47;;;10.58;100.00
56198;BME280;42700;42.524;12.052;2023-04-26T03:59:36;86079.31;;;10.58;100.00
56198;BME280;42700;42.524;12.052;2023-04-26T04:02:02;86146.50;;;10.61;100.00
56198;BME280;42700;42.524;12.052;2023-04-26T04:04:27;86246.22;;;10.64;100.00
56198;BME280;42700;42.524;12.052;2023-04-26T04:06:53;85782.47;;;10.50;100.00
56198;BME280;42700;42.524;12.052;2023-04-26T04:09:18;86482.75;;;10.70;100.00
56198;BME280;42700;42.524;12.052;2023-04-26T04:11:44;86232.25;;;10.63;100.00
56198;BME280;42700;42.524;12.052;2023-04-26T04:14:09;85682.78;;;10.47;100.00
56198;BME280;42700;42.524;12.052;2023-04-26T04:16:36;86477.47;;;10.70;100.00
56198;BME280;42700;42.524;12.052;2023-04-26T04:19:02;86878.00;;;10.83;100.00
56198;BME280;42700;42.524;12.052;2023-04-26T04:21:27;86883.31;;;10.83;100.00
56198;BME280;42700;42.524;12.052;2023-04-26T04:23:53;86370.81;;;10.69;100.00
56198;BME280;42700;42.524;12.052;2023-04-26T04:26:19;87250.78;;;10.96;100.00
56198;BME280;42700;42.524;12.052;2023-04-26T04:28:45;87300.72;;;10.97;100.00
56198;BME280;42700;42.524;12.052;2023-04-26T04:31:11;87569.19;;;11.07;100.00
56198;BME280;42700;42.524;12.052;2023-04-26T04:33:37;87343.28;;;11.03;100.00
56198;BME280;42700;42.524;12.052;2023-04-26T04:36:02;87203.38;;;10.98;100.00
56198;BME280;42700;42.524;12.052;2023-04-26T04:38:28;87613.75;;;11.12;100.00
56198;BME280;42700;42.524;12.052;2023-04-26T04:40:53;87478.22;;;11.10;100.00
56198;BME280;42700;42.524;12.052;2023-04-26T04:43:19;87454.69;;;11.12;100.00
56198;BME280;42700;42.524;12.052;2023-04-26T04:45:45;87510.69;;;11.14;100.00
56198;BME280;42700;42.524;12.052;2023-04-26T04:48:13;87830.44;;;11.24;100.00
56198;BME280;42700;42.524;12.052;2023-04-26T04:50:38;87306.97;;;11.13;100.00
56198;BME280;42700;42.524;12.052;2023-04-26T04:53:04;87641.44;;;11.24;100.00
56198;BME280;42700;42.524;12.052;2023-04-26T04:55:29;87873.06;;;11.30;100.00
56198;BME280;42700;42.524;12.052;2023-04-26T04:57:55;88262.22;;;11.46;100.00
56198;BME280;42700;42.524;12.052;2023-04-26T05:00:20;88523.59;;;11.54;100.00
56198;BME280;42700;42.524;12.052;2023-04-26T05:02:46;88713.75;;;11.64;100.00
56198;BME280;42700;42.524;12.052;2023-04-26T05:05:11;88971.47;;;11.74;100.00
56198;BME280;42700;42.524;12.052;2023-04-26T05:07:37;88362.41;;;11.58;100.00
56198;BME280;42700;42.524;12.052;2023-04-26T05:10:02;89060.88;;;11.84;100.00
56198;BME280;42700;42.524;12.052;2023-04-26T05:12:28;88508.91;;;11.70;100.00
56198;BME280;42700;42.524;12.052;2023-04-26T05:14:53;89132.13;;;11.89;100.00
56198;BME280;42700;42.524;12.052;2023-04-26T05:17:19;88722.19;;;11.83;100.00
56198;BME280;42700;42.524;12.052;2023-04-26T05:19:45;89492.47;;;12.07;100.00
56198;BME280;42700;42.524;12.052;2023-04-26T05:22:10;89949.44;;;12.25;100.00
56198;BME280;42700;42.524;12.052;2023-04-26T05:24:37;89721.66;;;12.25;100.00
56198;BME280;42700;42.524;12.052;2023-04-26T05:27:02;89158.53;;;12.11;100.00
56198;BME280;42700;42.524;12.052;2023-04-26T05:29:29;90110.47;;;12.44;100.00
56198;BME280;42700;42.524;12.052;2023-04-26T05:31:55;90333.09;;;12.54;100.00
56198;BME280;42700;42.524;12.052;2023-04-26T05:34:21;89813.16;;;12.46;100.00
56198;BME280;42700;42.524;12.052;2023-04-26T05:36:47;90000.38;;;12.55;100.00
56198;BME280;42700;42.524;12.052;2023-04-26T05:39:12;90664.25;;;12.78;100.00
56198;BME280;42700;42.524;12.052;2023-04-26T05:41:38;90245.47;;;12.72;100.00
56198;BME280;42700;42.524;12.052;2023-04-26T05:44:03;90193.84;;;12.77;100.00
56198;BME280;42700;42.524;12.052;2023-04-26T05:46:29;91002.50;;;13.03;100.00
56198;BME280;42700;42.524;12.052;2023-04-26T05:48:54;91023.91;;;13.10;100.00
56198;BME280;42700;42.524;12.052;2023-04-26T05:51:20;90982.97;;;13.19;100.00
56198;BME280;42700;42.524;12.052;2023-04-26T05:53:46;90952.63;;;13.23;100.00
56198;BME280;42700;42.524;12.052;2023-04-26T05:56:11;91569.41;;;13.47;100.00
56198;BME280;42700;42.524;12.052;2023-04-26T05:58:36;90824.19;;;13.30;100.00
56198;BME280;42700;42.524;12.052;2023-04-26T06:01:02;92641.06;;;13.87;100.00
56198;BME280;42700;42.524;12.052;2023-04-26T06:03:28;91603.00;;;13.68;100.00
56198;BME280;42700;42.524;12.052;2023-04-26T06:05:53;91968.03;;;13.80;100.00
56198;BME280;42700;42.524;12.052;2023-04-26T06:08:19;91516.34;;;13.74;100.00
56198;BME280;42700;42.524;12.052;2023-04-26T06:10:45;92406.13;;;14.09;100.00
56198;BME280;42700;42.524;12.052;2023-04-26T06:13:11;91646.56;;;13.92;100.00
56198;BME280;42700;42.524;12.052;2023-04-26T06:15:36;92602.91;;;14.25;100.00
56198;BME280;42700;42.524;12.052;2023-04-26T06:18:03;93498.16;;;14.62;100.00
56198;BME280;42700;42.524;12.052;2023-04-26T06:20:29;92480.28;;;14.37;100.00
56198;BME280;42700;42.524;12.052;2023-04-26T06:22:54;94677.72;;;15.10;100.00
56198;BME280;42700;42.524;12.052;2023-04-26T06:25:20;93983.16;;;15.00;100.00
56198;BME280;42700;42.524;12.052;2023-04-26T06:27:45;94949.91;;;15.37;100.00
56198;BME280;42700;42.524;12.052;2023-04-26T06:30:11;92371.09;;;14.77;100.00
56198;BME280;42700;42.524;12.052;2023-04-26T06:32:37;92338.72;;;14.79;100.00
56198;BME280;42700;42.524;12.052;2023-04-26T06:35:03;93686.63;;;15.22;100.00
56198;BME280;42700;42.524;12.052;2023-04-26T06:37:29;95249.66;;;15.72;100.00
56198;BME280;42700;42.524;12.052;2023-04-26T06:39:54;94403.47;;;15.57;100.00
56198;BME280;42700;42.524;12.052;2023-04-26T06:42:20;95134.34;;;15.83;100.00
56198;BME280;42700;42.524;12.052;2023-04-26T06:44:45;93508.97;;;15.51;100.00
56198;BME280;42700;42.524;12.052;2023-04-26T06:47:14;93499.53;;;15.54;100.00
56198;BME280;42700;42.524;12.052;2023-04-26T06:49:39;92483.75;;;15.29;100.00
56198;BME280;42700;42.524;12.052;2023-04-26T06:52:05;91016.16;;;14.92;100.00
56198;BME280;42700;42.524;12.052;2023-04-26T06:54:34;90467.47;;;14.81;100.00
56198;BME280;42700;42.524;12.052;2023-04-26T06:56:59;91390.94;;;15.11;100.00
56198;BME280;42700;42.524;12.052;2023-04-26T06:59:25;92224.84;;;15.36;100.00
56198;BME280;42700;42.524;12.052;2023-04-26T07:01:51;91796.09;;;15.30;100.00
56198;BME280;42700;42.524;12.052;2023-04-26T07:04:16;92333.13;;;15.46;100.00
56198;BME280;42700;42.524;12.052;2023-04-26T07:06:43;91444.97;;;15.27;100.00
56198;BME280;42700;42.524;12.052;2023-04-26T07:09:08;92928.16;;;15.72;100.00
56198;BME280;42700;42.524;12.052;2023-04-26T07:11:34;94730.44;;;16.27;100.00
56198;BME280;42700;42.524;12.052;2023-04-26T07:13:59;94032.06;;;16.11;100.00
56198;BME280;42700;42.524;12.052;2023-04-26T07:16:26;93102.38;;;15.91;100.00
56198;BME280;42700;42.524;12.052;2023-04-26T07:18:51;93801.13;;;16.11;100.00
56198;BME280;42700;42.524;12.052;2023-04-26T07:21:17;96186.41;;;16.81;100.00
56198;BME280;42700;42.524;12.052;2023-04-26T07:23:43;94700.47;;;16.49;100.00
56198;BME280;42700;42.524;12.052;2023-04-26T07:26:11;96855.59;;;17.10;100.00
56198;BME280;42700;42.524;12.052;2023-04-26T07:28:37;95714.19;;;16.89;100.00
56198;BME280;42700;42.524;12.052;2023-04-26T07:31:03;97231.16;;;17.34;100.00
56198;BME280;42700;42.524;12.052;2023-04-26T07:33:28;96448.88;;;17.21;100.00
56198;BME280;42700;42.524;12.052;2023-04-26T07:35:54;97230.94;;;17.47;100.00
56198;BME280;42700;42.524;12.052;2023-04-26T07:38:24;96393.50;;;17.37;100.00
56198;BME280;42700;42.524;12.052;2023-04-26T07:40:49;97608.53;;;17.72;100.00
56198;BME280;42700;42.524;12.052;2023-04-26T07:43:16;97134.31;;;17.71;100.00
56198;BME280;42700;42.524;12.052;2023-04-26T07:45:41;96971.09;;;17.73;100.00
56198;BME280;42700;42.524;12.052;2023-04-26T07:48:07;98764.13;;;18.29;100.00
56198;BME280;42700;42.524;12.052;2023-04-26T07:50:32;99705.81;;;18.62;100.00
56198;BME280;42700;42.524;12.052;2023-04-26T07:52:58;99149.13;;;18.61;100.00
56198;BME280;42700;42.524;12.052;2023-04-26T07:55:23;99212.97;;;18.74;100.00
56198;BME280;42700;42.524;12.052;2023-04-26T07:57:49;98091.50;;;18.52;100.00
56198;BME280;42700;42.524;12.052;2023-04-26T08:00:14;98440.22;;;18.65;100.00
56198;BME280;42700;42.524;12.052;2023-04-26T08:02:41;99163.50;;;18.96;100.00
56198;BME280;42700;42.524;12.052;2023-04-26T08:05:06;98000.28;;;18.76;100.00
56198;BME280;42700;42.524;12.052;2023-04-26T08:07:33;97848.31;;;18.85;100.00
56198;BME280;42700;42.524;12.052;2023-04-26T08:09:58;96969.09;;;18.77;100.00
56198;BME280;42700;42.524;12.052;2023-04-26T08:12:24;98747.81;;;19.32;100.00
56198;BME280;42700;42.524;12.052;2023-04-26T08:14:49;98969.94;;;19.50;100.00
56198;BME280;42700;42.524;12.052;2023-04-26T08:17:15;98814.53;;;19.57;100.00
56198;BME280;42700;42.524;12.052;2023-04-26T08:19:40;98485.88;;;19.57;100.00
56198;BME280;42700;42.524;12.052;2023-04-26T08:22:06;94344.66;;;18.66;100.00
56198;BME280;42700;42.524;12.052;2023-04-26T08:24:31;96794.72;;;19.40;100.00
56198;BME280;42700;42.524;12.052;2023-04-26T08:26:57;95261.31;;;19.13;100.00
56198;BME280;42700;42.524;12.052;2023-04-26T08:29:23;95916.50;;;19.40;99.54
56198;BME280;42700;42.524;12.052;2023-04-26T08:31:49;96429.28;;;19.68;99.10
56198;BME280;42700;42.524;12.052;2023-04-26T08:34:14;98490.63;;;20.25;100.00
56198;BME280;42700;42.524;12.052;2023-04-26T08:36:40;96631.63;;;19.87;100.00
56198;BME280;42700;42.524;12.052;2023-04-26T08:39:06;96442.28;;;19.91;98.52
56198;BME280;42700;42.524;12.052;2023-04-26T08:41:35;92478.63;;;19.01;96.41
56198;BME280;42700;42.524;12.052;2023-04-26T08:44:02;96947.06;;;20.13;99.78
56198;BME280;42700;42.524;12.052;2023-04-26T08:46:38;99183.19;;;20.70;100.00
56198;BME280;42700;42.524;12.052;2023-04-26T08:49:13;100987.97;;;21.15;98.11
56198;BME280;42700;42.524;12.052;2023-04-26T08:51:41;95425.91;;;20.01;94.16
56198;BME280;42700;42.524;12.052;2023-04-26T08:54:08;96224.81;;;20.28;96.36
56198;BME280;42700;42.524;12.052;2023-04-26T08:56:35;99620.56;;;21.12;97.23
56198;BME280;42700;42.524;12.052;2023-04-26T08:59:01;101023.22;;;21.48;95.51
56198;BME280;42700;42.524;12.052;2023-04-26T09:01:27;98054.53;;;20.87;91.59
56198;BME280;42700;42.524;12.052;2023-04-26T09:03:54;97103.50;;;20.77;89.90
56198;BME280;42700;42.524;12.052;2023-04-26T09:06:21;99885.22;;;21.48;90.93
56198;BME280;42700;42.524;12.052;2023-04-26T09:08:47;100732.13;;;21.80;92.66
56198;BME280;42700;42.524;12.052;2023-04-26T09:11:13;99026.69;;;21.49;89.74
56198;BME280;42700;42.524;12.052;2023-04-26T09:13:38;102811.81;;;22.43;92.34
56198;BME280;42700;42.524;12.052;2023-04-26T09:16:04;100264.44;;;21.93;87.59
56198;BME280;42700;42.524;12.052;2023-04-26T09:18:30;101152.44;;;22.28;89.10
56198;BME280;42700;42.524;12.052;2023-04-26T09:21:01;100888.16;;;22.36;88.17
56198;BME280;42700;42.524;12.052;2023-04-26T09:23:27;98169.00;;;21.80;84.14
56198;BME280;42700;42.524;12.052;2023-04-26T09:25:53;97281.94;;;21.73;81.73
56198;BME280;42700;42.524;12.052;2023-04-26T09:28:19;96768.06;;;21.76;82.47
56198;BME280;42700;42.524;12.052;2023-04-26T09:30:45;98313.19;;;22.21;84.12
56198;BME280;42700;42.524;12.052;2023-04-26T09:33:11;98803.38;;;22.42;80.90
56198;BME280;42700;42.524;12.052;2023-04-26T09:35:40;95076.16;;;21.72;74.20
56198;BME280;42700;42.524;12.052;2023-04-26T09:38:07;94298.50;;;21.72;74.00
56198;BME280;42700;42.524;12.052;2023-04-26T09:40:37;93887.47;;;21.75;73.67
56198;BME280;42700;42.524;12.052;2023-04-26T09:43:38;90707.41;;;21.22;71.78
56198;BME280;42700;42.524;12.052;2023-04-26T09:45:57;95613.34;;;22.65;72.57
56198;BME280;42700;42.524;12.052;2023-04-26T09:48:24;93677.94;;;22.46;67.15
56198;BME280;42700;42.524;12.052;2023-04-26T09:50:52;92285.50;;;22.39;66.35
56198;BME280;42700;42.524;12.052;2023-04-26T09:53:31;92900.75;;;22.76;65.93
56198;BME280;42700;42.524;12.052;2023-04-26T09:56:11;92350.09;;;22.98;64.64
56198;BME280;42700;42.524;12.052;2023-04-26T09:58:38;91956.44;;;23.15;65.53
56198;BME280;42700;42.524;12.052;2023-04-26T10:01:04;87901.28;;;22.37;59.23
56198;BME280;42700;42.524;12.052;2023-04-26T10:03:50;87639.53;;;22.54;57.12
56198;BME280;42700;42.524;12.052;2023-04-26T10:06:16;85383.25;;;22.30;58.27
56198;BME280;42700;42.524;12.052;2023-04-26T10:08:41;86241.13;;;22.69;57.97
56198;BME280;42700;42.524;12.052;2023-04-26T10:11:07;86385.97;;;22.95;59.65
56198;BME280;42700;42.524;12.052;2023-04-26T10:13:35;86180.13;;;23.02;58.20
56198;BME280;42700;42.524;12.052;2023-04-26T10:16:01;90499.69;;;24.22;61.82
56198;BME280;42700;42.524;12.052;2023-04-26T10:18:27;88646.66;;;23.91;58.72
56198;BME280;42700;42.524;12.052;2023-04-26T10:20:54;89147.81;;;24.16;56.57
56198;BME280;42700;42.524;12.052;2023-04-26T10:23:21;92519.28;;;25.15;60.27
56198;BME280;42700;42.524;12.052;2023-04-26T10:25:50;89523.25;;;24.58;55.33
56198;BME280;42700;42.524;12.052;2023-04-26T10:28:16;92369.47;;;25.45;58.75
56198;BME280;42700;42.524;12.052;2023-04-26T10:30:54;89986.75;;;24.97;54.38
56198;BME280;42700;42.524;12.052;2023-04-26T10:33:20;92586.03;;;25.86;58.51
56198;BME280;42700;42.524;12.052;2023-04-26T10:36:05;89503.94;;;25.34;56.50
56198;BME280;42700;42.524;12.052;2023-04-26T10:38:32;89296.88;;;25.37;53.48
56198;BME280;42700;42.524;12.052;2023-04-26T10:43:42;84393.84;;;24.21;47.23
56198;BME280;42700;42.524;12.052;2023-04-26T10:49:15;87990.16;;;25.75;50.15
56198;BME280;42700;42.524;12.052;2023-04-26T10:52:07;88116.34;;;25.87;48.37
56198;BME280;42700;42.524;12.052;2023-04-26T10:54:33;84573.50;;;25.16;43.54
56198;BME280;42700;42.524;12.052;2023-04-26T10:57:08;83753.66;;;25.42;44.57
56198;BME280;42700;42.524;12.052;2023-04-26T10:59:34;79221.38;;;24.62;41.91
56198;BME280;42700;42.524;12.052;2023-04-26T11:01:59;85993.97;;;26.58;48.87
56198;BME280;42700;42.524;12.052;2023-04-26T11:04:26;88789.72;;;27.14;50.25
56198;BME280;42700;42.524;12.052;2023-04-26T11:07:12;87679.47;;;26.58;44.28
56198;BME280;42700;42.524;12.052;2023-04-26T11:09:38;89657.59;;;27.27;46.96
56198;BME280;42700;42.524;12.052;2023-04-26T11:12:05;91028.72;;;27.53;46.50
56198;BME280;42700;42.524;12.052;2023-04-26T11:14:34;92119.72;;;27.89;50.13
56198;BME280;42700;42.524;12.052;2023-04-26T11:17:06;89825.91;;;27.34;46.94
56198;BME280;42700;42.524;12.052;2023-04-26T11:19:32;92856.69;;;28.19;50.92
56198;BME280;42700;42.524;12.052;2023-04-26T11:21:58;91355.56;;;27.71;47.85
56198;BME280;42700;42.524;12.052;2023-04-26T11:24:27;90088.06;;;27.22;45.33
56198;BME280;42700;42.524;12.052;2023-04-26T11:26:54;92204.66;;;27.84;49.49
56198;BME280;42700;42.524;12.052;2023-04-26T11:29:20;93408.22;;;28.12;49.58
56198;BME280;42700;42.524;12.052;2023-04-26T11:31:55;83329.53;;;25.87;44.81
56198;BME280;42700;42.524;12.052;2023-04-26T11:34:33;89011.22;;;27.24;46.71
56198;BME280;42700;42.524;12.052;2023-04-26T11:37:02;87271.09;;;26.82;45.96
56198;BME280;42700;42.524;12.052;2023-04-26T11:39:31;85918.81;;;26.61;44.33
56198;BME280;42700;42.524;12.052;2023-04-26T11:42:07;81922.34;;;25.72;43.96
56198;BME280;42700;42.524;12.052;2023-04-26T11:44:33;92623.00;;;28.19;51.97
56198;BME280;42700;42.524;12.052;2023-04-26T11:46:59;88886.84;;;26.85;45.45
56198;BME280;42700;42.524;12.052;2023-04-26T11:49:25;89901.69;;;27.27;49.11
56198;BME280;42700;42.524;12.052;2023-04-26T11:51:51;88509.81;;;26.91;47.80
56198;BME280;42700;42.524;12.052;2023-04-26T11:54:30;90570.97;;;27.36;46.63
56198;BME280;42700;42.524;12.052;2023-04-26T11:56:56;84336.75;;;25.92;43.56
56198;BME280;42700;42.524;12.052;2023-04-26T11:59:22;83325.09;;;25.93;43.82
56198;BME280;42700;42.524;12.052;2023-04-26T12:01:49;82106.75;;;25.82;43.17
56198;BME280;42700;42.524;12.052;2023-04-26T12:04:15;80630.00;;;25.55;41.04
56198;BME280;42700;42.524;12.052;2023-04-26T12:06:41;87279.72;;;27.43;42.67
56198;BME280;42700;42.524;12.052;2023-04-26T12:09:07;93014.19;;;28.83;49.70
56198;BME280;42700;42.524;12.052;2023-04-26T12:11:33;97834.59;;;29.51;49.50
56198;BME280;42700;42.524;12.052;2023-04-26T12:13:59;95347.31;;;28.63;41.62
56198;BME280;42700;42.524;12.052;2023-04-26T12:16:25;90277.09;;;27.60;40.40
56198;BME280;42700;42.524;12.052;2023-04-26T12:18:51;91817.53;;;28.53;41.56
56198;BME280;42700;42.524;12.052;2023-04-26T12:21:17;89614.41;;;28.34;40.61
56198;BME280;42700;42.524;12.052;2023-04-26T12:23:42;95528.53;;;29.91;46.60
56198;BME280;42700;42.524;12.052;2023-04-26T12:26:12;88675.41;;;28.06;40.07
56198;BME280;42700;42.524;12.052;2023-04-26T12:28:37;85147.47;;;27.51;40.17
56198;BME280;42700;42.524;12.052;2023-04-26T12:31:03;87388.00;;;28.24;40.46
56198;BME280;42700;42.524;12.052;2023-04-26T12:33:29;85673.94;;;27.97;39.93
56198;BME280;42700;42.524;12.052;2023-04-26T12:35:55;87836.44;;;28.77;43.96
56198;BME280;42700;42.524;12.052;2023-04-26T12:38:22;92864.84;;;29.66;43.37
56198;BME280;42700;42.524;12.052;2023-04-26T12:40:47;97519.81;;;30.40;45.19
56198;BME280;42700;42.524;12.052;2023-04-26T12:43:13;100852.34;;;30.94;47.22
56198;BME280;42700;42.524;12.052;2023-04-26T12:45:40;99167.66;;;30.15;41.38